Flint, Michigan
Current Conditions -  °F | °C
As of 12:53 AM on Monday 26 Jan 2015 (Local Time) from KFNT Reporting Station
Few Clouds Few Clouds  
Wind Chill: -15°   Ceiling: Unl
Heat Index: -9°   Visibility: 10mi
Dew Point: -12°   Wind: 8mph
Humidity: 77%   Direction: 40°NE
Pressure: 30"   Gusts: NA
Location:  43.01°N, 83.68°W
Report Text: KFNT 260553Z AUTO 04007KT 10SM FEW016 M09/M12 A3000 RMK AO2 SLP172 T10891122 11072 21089 58001
Loading
Personal Weather Stations






























Interactive Weather Map New forecast layout! Learn more

10-Day Weather Forecast

Advertisements
Track Severe Weather on mobile